Time;durP1;ratioP1;P1;durP2;ratioP2;P2;SDS_P1;SDS_P2;PMS_P1;PMS_P2;Temp;Humidity;BMP_temperature;BMP_pressure;BME280_temperature;BME280_humidity;BME280_pressure;Samples;Min_cycle;Max_cycle;Signal;HPM_P1;HPM_P2
2022/04/10 00:00:44;;;;;;;26.17;3.20;;;3.50;99.90;;;;;;4939887;28;20049;-60
2022/04/10 00:03:11;;;;;;;15.23;2.78;;;3.40;99.90;;;;;;4949938;28;20097;-60
2022/04/10 00:05:37;;;;;;;15.20;2.97;;;3.40;99.90;;;;;;4948598;28;20047;-60
2022/04/10 00:08:04;;;;;;;17.30;3.10;;;3.40;99.90;;;;;;4950721;28;20521;-59
2022/04/10 00:10:30;;;;;;;16.02;3.33;;;3.30;99.90;;;;;;4952873;28;20097;-59
2022/04/10 00:12:56;;;;;;;14.93;3.75;;;3.40;99.90;;;;;;4949848;28;20138;-60
2022/04/10 00:15:22;;;;;;;13.65;2.92;;;3.30;99.90;;;;;;4947749;28;20054;-60
2022/04/10 00:17:47;;;;;;;22.25;3.88;;;3.30;99.90;;;;;;4916498;28;20046;-59
2022/04/10 00:20:13;;;;;;;14.15;3.15;;;3.30;99.90;;;;;;4932330;28;20107;-59
2022/04/10 00:22:44;;;;;;;18.52;3.38;;;3.30;99.90;;;;;;4951351;28;20230;-61
2022/04/10 00:25:11;;;;;;;17.42;3.88;;;3.30;99.90;;;;;;4983040;28;20054;-61
2022/04/10 00:27:38;;;;;;;12.93;2.92;;;3.30;99.90;;;;;;4953759;28;20206;-60
2022/04/10 00:30:04;;;;;;;16.27;3.13;;;3.30;99.90;;;;;;4948816;28;20047;-60
2022/04/10 00:32:30;;;;;;;13.50;3.53;;;3.30;99.90;;;;;;4967486;28;20054;-59
2022/04/10 00:34:56;;;;;;;20.40;3.88;;;3.30;99.90;;;;;;4949759;28;20047;-60
2022/04/10 00:37:22;;;;;;;12.00;2.80;;;3.30;99.90;;;;;;4950859;28;20038;-61
2022/04/10 00:39:47;;;;;;;18.02;3.20;;;3.20;99.90;;;;;;4947751;28;20083;-60
2022/04/10 00:42:13;;;;;;;19.90;3.85;;;3.20;99.90;;;;;;4949721;28;20501;-60
2022/04/10 00:44:39;;;;;;;19.95;3.75;;;3.20;99.90;;;;;;4948640;28;20043;-59
2022/04/10 00:47:05;;;;;;;18.70;3.47;;;3.20;99.90;;;;;;4935416;28;20793;-59
2022/04/10 00:49:31;;;;;;;12.40;3.10;;;3.30;99.90;;;;;;4948528;28;20039;-60
2022/04/10 00:51:59;;;;;;;19.17;3.08;;;3.30;99.90;;;;;;4933465;28;20106;-59
2022/04/10 00:54:26;;;;;;;16.83;2.70;;;3.30;99.90;;;;;;4930883;28;20074;-59
2022/04/10 00:56:55;;;;;;;20.05;3.33;;;3.30;99.90;;;;;;4951066;28;20137;-60
2022/04/10 00:59:21;;;;;;;14.55;3.35;;;3.30;99.90;;;;;;4950675;28;20506;-60
2022/04/10 01:01:47;;;;;;;11.88;2.65;;;3.30;99.90;;;;;;4969021;28;20058;-59
2022/04/10 01:04:14;;;;;;;9.82;2.20;;;3.20;99.90;;;;;;4937253;28;20051;-59
2022/04/10 01:06:41;;;;;;;12.88;2.95;;;3.20;99.90;;;;;;4951687;28;20062;-60
2022/04/10 01:09:07;;;;;;;9.13;2.15;;;3.20;99.90;;;;;;4932605;28;20073;-59
2022/04/10 01:11:34;;;;;;;12.85;2.70;;;3.20;99.90;;;;;;4938312;28;20058;-58
2022/04/10 01:14:01;;;;;;;15.18;2.22;;;3.20;99.90;;;;;;4950526;28;20055;-60
2022/04/10 01:16:28;;;;;;;12.30;2.85;;;3.20;99.90;;;;;;4952633;28;20130;-60
2022/04/10 01:18:56;;;;;;;11.15;2.65;;;3.10;99.90;;;;;;4956494;28;20047;-60
2022/04/10 01:21:27;;;;;;;13.00;2.90;;;3.10;99.90;;;;;;4952400;28;20047;-59
2022/04/10 01:23:54;;;;;;;14.23;2.97;;;3.10;99.90;;;;;;4953879;28;20822;-59
2022/04/10 01:26:22;;;;;;;15.27;2.88;;;3.10;99.90;;;;;;4931131;28;20047;-59
2022/04/10 01:29:01;;;;;;;15.07;2.92;;;3.10;99.90;;;;;;4933860;28;20390;-59
2022/04/10 01:31:28;;;;;;;13.70;2.97;;;3.00;99.90;;;;;;4968163;28;20059;-60
2022/04/10 01:34:00;;;;;;;13.63;2.90;;;3.00;99.90;;;;;;4936051;28;20243;-60
2022/04/10 01:36:27;;;;;;;22.20;2.85;;;3.00;99.90;;;;;;4954296;28;20568;-61
2022/04/10 01:38:55;;;;;;;12.52;2.63;;;3.00;99.90;;;;;;4952590;28;20057;-60
2022/04/10 01:41:22;;;;;;;17.52;2.72;;;3.00;99.90;;;;;;4950932;28;20054;-61
2022/04/10 01:43:49;;;;;;;12.60;2.85;;;2.90;99.90;;;;;;4951745;28;20043;-60
2022/04/10 01:46:16;;;;;;;22.08;3.22;;;2.90;99.90;;;;;;4968157;28;20465;-59
2022/04/10 01:48:42;;;;;;;15.38;2.83;;;2.90;99.90;;;;;;4951713;28;20070;-60
2022/04/10 01:51:08;;;;;;;14.13;3.08;;;2.80;99.90;;;;;;4949148;28;20162;-61
2022/04/10 01:53:35;;;;;;;13.82;3.05;;;2.80;99.90;;;;;;4951413;28;20042;-61
2022/04/10 01:56:02;;;;;;;12.35;3.20;;;2.80;99.90;;;;;;4931735;28;20071;-61
2022/04/10 01:58:27;;;;;;;16.15;3.15;;;2.80;99.90;;;;;;4951300;28;20157;-60
2022/04/10 02:00:53;;;;;;;20.40;3.47;;;2.90;99.90;;;;;;4967051;28;20155;-60
2022/04/10 02:03:19;;;;;;;16.67;3.80;;;2.80;99.90;;;;;;4950786;28;20051;-59
2022/04/10 02:05:45;;;;;;;16.40;3.05;;;2.80;99.90;;;;;;4965796;28;20055;-59
2022/04/10 02:08:10;;;;;;;13.30;2.97;;;2.80;99.90;;;;;;4950014;28;20492;-60
2022/04/10 02:10:36;;;;;;;16.15;3.28;;;2.80;99.90;;;;;;4951032;28;20050;-60
2022/04/10 02:13:03;;;;;;;16.42;3.22;;;2.70;99.90;;;;;;4932960;28;20054;-60
2022/04/10 02:15:28;;;;;;;14.63;3.25;;;2.80;99.90;;;;;;4952637;28;20055;-59
2022/04/10 02:17:54;;;;;;;13.65;2.90;;;2.80;99.90;;;;;;4965019;28;20602;-60
2022/04/10 02:20:20;;;;;;;16.60;3.42;;;2.70;99.90;;;;;;4966789;28;20050;-60
2022/04/10 02:22:46;;;;;;;19.30;3.42;;;2.70;99.90;;;;;;4966321;28;22046;-59
2022/04/10 02:25:11;;;;;;;14.30;3.63;;;2.70;99.90;;;;;;4950041;28;20104;-60
2022/04/10 02:27:37;;;;;;;17.70;3.33;;;2.60;99.90;;;;;;4963446;28;20051;-60
2022/04/10 02:30:04;;;;;;;16.65;2.97;;;2.60;99.90;;;;;;4962068;28;20097;-61
2022/04/10 02:32:30;;;;;;;17.58;3.58;;;2.60;99.90;;;;;;4952281;28;20113;-59
2022/04/10 02:34:56;;;;;;;9.25;2.70;;;2.60;99.90;;;;;;4961952;28;20564;-59
2022/04/10 02:37:22;;;;;;;13.85;3.03;;;2.60;99.90;;;;;;4948889;28;20520;-61
2022/04/10 02:39:48;;;;;;;10.32;2.80;;;2.60;99.90;;;;;;4933951;28;20038;-59
2022/04/10 02:42:13;;;;;;;12.45;3.00;;;2.60;99.90;;;;;;4963383;28;20054;-60
2022/04/10 02:44:39;;;;;;;16.75;3.55;;;2.60;99.90;;;;;;4964671;28;20333;-60
2022/04/10 02:47:06;;;;;;;14.35;3.45;;;2.70;99.90;;;;;;4951865;28;20760;-60
2022/04/10 02:49:31;;;;;;;10.00;2.45;;;2.70;99.90;;;;;;4950063;28;20035;-59
2022/04/10 02:51:57;;;;;;;14.63;2.55;;;2.70;99.90;;;;;;4949975;28;20125;-60
2022/04/10 02:54:23;;;;;;;13.85;2.78;;;2.70;99.90;;;;;;4935349;28;20047;-60
2022/04/10 02:56:49;;;;;;;17.42;2.92;;;2.60;99.90;;;;;;4952164;28;20469;-60
2022/04/10 02:59:14;;;;;;;12.20;2.97;;;2.70;99.90;;;;;;4931723;28;20046;-59
2022/04/10 03:01:40;;;;;;;11.93;2.00;;;2.70;99.90;;;;;;4948246;28;20050;-59
2022/04/10 03:04:06;;;;;;;12.75;2.45;;;2.70;99.90;;;;;;4947756;28;20047;-60
2022/04/10 03:06:32;;;;;;;7.65;2.20;;;2.60;99.90;;;;;;4947099;28;20058;-60
2022/04/10 03:08:58;;;;;;;14.05;2.60;;;2.60;99.90;;;;;;4940395;28;20615;-59
2022/04/10 03:11:25;;;;;;;13.55;2.78;;;2.60;99.90;;;;;;4950208;28;20086;-60
2022/04/10 03:13:51;;;;;;;12.27;2.33;;;2.60;99.90;;;;;;4962139;28;20055;-59
2022/04/10 03:16:17;;;;;;;18.83;3.22;;;2.50;99.90;;;;;;4948974;28;20057;-59
2022/04/10 03:18:43;;;;;;;8.43;2.30;;;2.60;99.90;;;;;;4931090;28;20046;-60
2022/04/10 03:21:08;;;;;;;8.48;2.63;;;2.50;99.90;;;;;;4929505;28;20055;-60
2022/04/10 03:23:34;;;;;;;8.23;2.45;;;2.50;99.90;;;;;;4936183;28;20054;-59
2022/04/10 03:26:00;;;;;;;9.57;2.20;;;2.60;99.90;;;;;;4963167;28;20051;-60
2022/04/10 03:28:26;;;;;;;10.85;2.50;;;2.50;99.90;;;;;;4947424;28;20082;-59
2022/04/10 03:30:51;;;;;;;10.52;2.00;;;2.60;99.90;;;;;;4948141;28;20578;-59
2022/04/10 03:33:17;;;;;;;10.40;1.98;;;2.60;99.90;;;;;;4951533;28;20463;-61
2022/04/10 03:35:43;;;;;;;15.52;2.10;;;2.60;99.90;;;;;;4949565;28;20055;-60
2022/04/10 03:38:09;;;;;;;11.82;3.10;;;2.60;99.90;;;;;;4964699;28;20478;-60
2022/04/10 03:40:34;;;;;;;10.20;2.22;;;2.60;99.90;;;;;;4949034;28;20050;-59
2022/04/10 03:43:00;;;;;;;9.20;2.20;;;2.70;99.90;;;;;;4916703;28;20055;-60
2022/04/10 03:45:26;;;;;;;9.10;1.98;;;2.60;99.90;;;;;;4950337;28;20412;-59
2022/04/10 03:47:52;;;;;;;7.18;1.67;;;2.60;99.90;;;;;;4949717;28;20047;-60
2022/04/10 03:50:18;;;;;;;8.30;1.77;;;2.70;99.90;;;;;;4962886;28;20137;-60
2022/04/10 03:52:44;;;;;;;7.78;2.00;;;2.70;99.90;;;;;;4948273;28;20067;-61
2022/04/10 03:55:10;;;;;;;7.95;1.90;;;2.60;99.90;;;;;;4947667;28;20051;-59
2022/04/10 03:57:36;;;;;;;6.55;1.90;;;2.70;99.90;;;;;;4960171;28;20046;-61
2022/04/10 04:00:02;;;;;;;12.98;2.08;;;2.70;99.90;;;;;;4931558;28;20523;-59
2022/04/10 04:02:28;;;;;;;9.48;1.95;;;2.70;99.90;;;;;;4952739;28;20046;-60
2022/04/10 04:04:54;;;;;;;7.68;1.60;;;2.70;99.90;;;;;;4961965;28;20054;-59
2022/04/10 04:07:20;;;;;;;7.32;1.73;;;2.80;99.90;;;;;;4948669;28;20209;-59
2022/04/10 04:09:46;;;;;;;7.72;1.98;;;2.80;99.90;;;;;;4944770;28;20059;-61
2022/04/10 04:12:11;;;;;;;8.60;1.70;;;2.80;99.90;;;;;;4963756;28;20050;-59
2022/04/10 04:14:37;;;;;;;4.75;1.67;;;2.90;99.90;;;;;;4920286;28;20055;-61
2022/04/10 04:17:03;;;;;;;12.30;1.88;;;2.90;99.90;;;;;;4949868;28;20035;-60
2022/04/10 04:19:29;;;;;;;2.78;1.42;;;2.90;99.90;;;;;;4944899;28;20061;-59
2022/04/10 04:21:55;;;;;;;8.07;1.80;;;2.90;99.90;;;;;;4943756;28;20043;-60
2022/04/10 04:24:21;;;;;;;9.02;1.67;;;2.90;99.90;;;;;;4934373;28;20050;-60
2022/04/10 04:26:47;;;;;;;8.98;2.17;;;2.90;99.90;;;;;;4964013;28;20062;-59
2022/04/10 04:29:12;;;;;;;5.13;1.67;;;2.80;99.90;;;;;;4946046;28;20085;-60
2022/04/10 04:31:38;;;;;;;6.30;1.50;;;2.80;99.90;;;;;;4948796;28;20505;-59
2022/04/10 04:34:04;;;;;;;7.57;1.50;;;2.70;99.90;;;;;;4953873;28;20051;-59
2022/04/10 04:36:31;;;;;;;6.25;1.65;;;2.70;99.90;;;;;;4949885;28;20043;-60
2022/04/10 04:38:57;;;;;;;8.35;1.75;;;2.60;99.90;;;;;;4966060;28;20055;-58
2022/04/10 04:41:23;;;;;;;10.05;2.20;;;2.60;99.90;;;;;;4935155;28;20050;-60
2022/04/10 04:43:49;;;;;;;7.03;1.90;;;2.60;99.90;;;;;;4952643;28;20472;-60
2022/04/10 04:46:15;;;;;;;4.88;1.65;;;2.50;99.90;;;;;;4944143;28;20109;-59
2022/04/10 04:48:41;;;;;;;6.32;1.50;;;2.60;99.90;;;;;;4942582;28;20054;-59
2022/04/10 04:51:06;;;;;;;4.65;1.80;;;2.50;99.90;;;;;;4950241;28;20043;-60
2022/04/10 04:53:32;;;;;;;9.77;2.17;;;2.50;99.90;;;;;;4951628;28;20496;-60
2022/04/10 04:55:58;;;;;;;8.15;1.80;;;2.40;99.90;;;;;;4950699;28;20485;-59
2022/04/10 04:58:24;;;;;;;8.63;1.95;;;2.40;99.90;;;;;;4936533;28;20051;-59
2022/04/10 05:00:50;;;;;;;7.30;2.00;;;2.40;99.90;;;;;;4946422;28;20082;-59
2022/04/10 05:03:16;;;;;;;7.05;1.60;;;2.30;99.90;;;;;;4934509;28;20046;-60
2022/04/10 05:05:42;;;;;;;8.32;1.85;;;2.30;99.90;;;;;;4956324;28;20113;-60
2022/04/10 05:08:08;;;;;;;5.70;1.58;;;2.30;99.90;;;;;;4951878;28;20050;-60
2022/04/10 05:10:33;;;;;;;8.77;2.10;;;2.30;99.90;;;;;;4946863;28;20055;-60
2022/04/10 05:12:59;;;;;;;6.85;1.75;;;2.30;99.90;;;;;;4951510;28;20057;-60
2022/04/10 05:15:25;;;;;;;8.88;2.10;;;2.20;99.90;;;;;;4934281;28;20481;-60
2022/04/10 05:17:51;;;;;;;10.35;2.05;;;2.30;99.90;;;;;;4949345;28;20047;-59
2022/04/10 05:20:17;;;;;;;8.18;2.10;;;2.30;99.90;;;;;;4950015;28;20774;-59
2022/04/10 05:22:43;;;;;;;9.23;1.83;;;2.20;99.90;;;;;;4952370;28;20583;-59
2022/04/10 05:25:09;;;;;;;13.52;2.05;;;2.30;99.90;;;;;;4937566;28;20161;-59
2022/04/10 05:27:35;;;;;;;5.15;1.92;;;2.30;99.90;;;;;;4930933;28;20100;-59
2022/04/10 05:30:01;;;;;;;8.88;1.92;;;2.30;99.90;;;;;;4947305;28;20055;-60
2022/04/10 05:32:27;;;;;;;6.63;2.40;;;2.30;99.90;;;;;;4953246;28;20481;-61
2022/04/10 05:34:53;;;;;;;8.52;1.67;;;2.40;99.90;;;;;;4950389;28;20058;-59
2022/04/10 05:37:19;;;;;;;12.05;2.28;;;2.40;99.90;;;;;;4952126;28;20544;-59
2022/04/10 05:39:45;;;;;;;12.38;2.42;;;2.40;99.90;;;;;;4946427;28;20110;-59
2022/04/10 05:42:11;;;;;;;9.93;2.38;;;2.40;99.90;;;;;;4946679;28;20349;-59
2022/04/10 05:44:37;;;;;;;10.15;2.22;;;2.40;99.90;;;;;;4949012;28;20039;-59
2022/04/10 05:47:03;;;;;;;9.70;2.42;;;2.40;99.90;;;;;;4949152;28;20129;-61
2022/04/10 05:49:29;;;;;;;12.27;2.40;;;2.40;99.90;;;;;;4951285;28;20504;-59
2022/04/10 05:51:55;;;;;;;10.02;2.22;;;2.40;99.90;;;;;;4948673;28;20161;-59
2022/04/10 05:54:21;;;;;;;11.95;2.42;;;2.50;99.90;;;;;;4932165;28;20757;-60
2022/04/10 05:56:47;;;;;;;5.72;1.90;;;2.40;99.90;;;;;;4942818;28;20043;-60
2022/04/10 05:59:12;;;;;;;7.45;2.38;;;2.50;99.90;;;;;;4933450;28;20509;-60
2022/04/10 06:01:38;;;;;;;10.55;2.00;;;2.50;99.90;;;;;;4934696;28;20596;-60
2022/04/10 06:04:04;;;;;;;15.40;3.20;;;2.60;99.90;;;;;;4951971;28;20120;-60
2022/04/10 06:06:30;;;;;;;7.88;2.17;;;2.70;99.90;;;;;;4932932;28;20727;-59
2022/04/10 06:08:56;;;;;;;7.72;2.67;;;2.70;99.90;;;;;;4910930;28;1141664;-59
2022/04/10 06:11:22;;;;;;;11.85;2.58;;;2.80;99.90;;;;;;4944061;28;20053;-60
2022/04/10 06:13:47;;;;;;;12.52;2.22;;;2.90;99.90;;;;;;4919784;28;20536;-59
2022/04/10 06:16:13;;;;;;;14.55;2.70;;;2.90;99.90;;;;;;4962938;28;20049;-60
2022/04/10 06:18:39;;;;;;;11.23;2.40;;;2.90;99.90;;;;;;4948795;28;20058;-60
2022/04/10 06:21:05;;;;;;;10.77;2.50;;;2.90;99.90;;;;;;4962781;28;20182;-60
2022/04/10 06:23:30;;;;;;;15.02;2.53;;;3.00;99.90;;;;;;4918994;28;20105;-60
2022/04/10 06:25:56;;;;;;;13.00;2.70;;;3.00;99.90;;;;;;4962960;28;20466;-60
2022/04/10 06:28:22;;;;;;;10.50;2.78;;;3.00;99.90;;;;;;4931205;28;20805;-59
2022/04/10 06:30:48;;;;;;;9.23;2.30;;;3.10;99.90;;;;;;4947033;28;20097;-59
2022/04/10 06:33:16;;;;;;;12.23;2.40;;;3.10;99.90;;;;;;4951540;28;20065;-60
2022/04/10 06:35:42;;;;;;;12.50;2.22;;;3.10;99.90;;;;;;4922738;28;20047;-59
2022/04/10 06:38:08;;;;;;;13.50;2.53;;;3.20;99.90;;;;;;4945506;28;20043;-60
2022/04/10 06:40:34;;;;;;;11.13;3.03;;;3.20;99.90;;;;;;4963144;28;20042;-60
2022/04/10 06:43:00;;;;;;;12.98;2.22;;;3.30;99.90;;;;;;4964620;28;20077;-61
2022/04/10 06:45:26;;;;;;;10.68;2.28;;;3.40;99.90;;;;;;4946625;28;20065;-60
2022/04/10 06:47:51;;;;;;;13.73;2.67;;;3.50;99.90;;;;;;4936867;28;20866;-60
2022/04/10 06:50:17;;;;;;;9.02;2.05;;;3.50;99.90;;;;;;4944311;28;20145;-60
2022/04/10 06:52:43;;;;;;;11.15;2.97;;;3.60;99.90;;;;;;4960442;28;20059;-59
2022/04/10 06:55:09;;;;;;;12.30;2.65;;;3.60;99.90;;;;;;4945422;28;20793;-59
2022/04/10 06:57:35;;;;;;;13.43;2.85;;;3.70;99.90;;;;;;4942247;28;20768;-59
2022/04/10 07:00:01;;;;;;;15.82;2.40;;;3.70;99.90;;;;;;4947688;28;20069;-60
2022/04/10 07:02:27;;;;;;;11.55;2.28;;;3.80;99.90;;;;;;4943866;28;20082;-60
2022/04/10 07:04:53;;;;;;;11.45;3.05;;;3.80;99.90;;;;;;4949368;28;20133;-60
2022/04/10 07:07:18;;;;;;;16.08;2.65;;;3.90;99.90;;;;;;4949498;28;20055;-60
2022/04/10 07:09:44;;;;;;;8.93;2.40;;;4.00;99.90;;;;;;4930989;28;20082;-60
2022/04/10 07:12:10;;;;;;;12.23;2.97;;;4.10;99.90;;;;;;4928758;28;20047;-60
2022/04/10 07:14:36;;;;;;;10.05;2.53;;;4.10;99.90;;;;;;4915328;28;20765;-60
2022/04/10 07:17:02;;;;;;;14.13;3.25;;;4.20;99.90;;;;;;4950579;28;20051;-60
2022/04/10 07:19:28;;;;;;;10.75;2.95;;;4.30;99.90;;;;;;4953632;28;20047;-60
2022/04/10 07:24:39;;;;;;;8.73;1.95;;;4.50;99.90;;;;;;4950355;28;20058;-59
2022/04/10 07:27:04;;;;;;;8.25;2.17;;;4.60;99.90;;;;;;4944968;28;20072;-59
2022/04/10 07:29:30;;;;;;;8.48;2.38;;;4.60;99.90;;;;;;4936875;28;20154;-59
2022/04/10 07:31:56;;;;;;;12.98;2.65;;;4.80;99.90;;;;;;4950078;28;20066;-60
2022/04/10 07:34:22;;;;;;;6.28;1.88;;;4.80;99.90;;;;;;4969127;28;20059;-60
2022/04/10 07:36:47;;;;;;;13.13;2.45;;;4.90;99.90;;;;;;4952240;28;20463;-60
2022/04/10 07:39:13;;;;;;;9.48;1.75;;;5.10;99.90;;;;;;4928898;28;20046;-59
2022/04/10 07:41:39;;;;;;;5.20;1.80;;;5.20;99.90;;;;;;4954037;28;20061;-59
2022/04/10 07:44:05;;;;;;;9.45;2.10;;;5.30;99.90;;;;;;4933143;28;20047;-59
2022/04/10 07:49:15;;;;;;;9.68;1.55;;;5.50;99.90;;;;;;4954791;28;20069;-61
2022/04/10 07:51:41;;;;;;;11.23;1.80;;;5.70;99.90;;;;;;4932748;28;20047;-59
2022/04/10 07:54:07;;;;;;;12.52;2.22;;;5.80;99.90;;;;;;4969217;28;20061;-60
2022/04/10 07:56:33;;;;;;;16.48;2.33;;;5.90;99.90;;;;;;4971084;28;20054;-60
2022/04/10 07:58:59;;;;;;;9.07;2.17;;;6.00;99.90;;;;;;4952396;28;20082;-60
2022/04/10 08:01:24;;;;;;;10.98;1.98;;;6.10;99.90;;;;;;4945106;28;20047;-60
2022/04/10 08:03:52;;;;;;;11.27;2.20;;;6.20;99.90;;;;;;4955517;28;20043;-61
2022/04/10 08:06:21;;;;;;;7.47;2.38;;;6.30;99.90;;;;;;4954893;28;20069;-60
2022/04/10 08:08:47;;;;;;;12.57;2.45;;;6.40;99.90;;;;;;4953881;28;20050;-59
2022/04/10 08:11:13;;;;;;;11.20;2.40;;;6.50;99.90;;;;;;4966662;28;20059;-60
2022/04/10 08:13:39;;;;;;;10.40;2.20;;;6.60;99.90;;;;;;4928297;28;20058;-60
2022/04/10 08:16:05;;;;;;;11.90;2.70;;;6.70;99.90;;;;;;4953705;28;20142;-60
2022/04/10 08:18:31;;;;;;;17.70;2.35;;;6.90;99.90;;;;;;4954414;28;20058;-60
2022/04/10 08:20:57;;;;;;;7.45;2.17;;;7.00;99.90;;;;;;4939323;28;20050;-60
2022/04/10 08:23:22;;;;;;;7.60;2.03;;;7.10;99.90;;;;;;4954890;28;20066;-61
2022/04/10 08:25:48;;;;;;;10.45;2.65;;;7.10;99.90;;;;;;4953180;28;20091;-60
2022/04/10 08:28:14;;;;;;;10.95;2.70;;;7.00;99.90;;;;;;4968392;28;20065;-59
2022/04/10 08:30:40;;;;;;;11.00;2.38;;;7.00;99.90;;;;;;4954264;28;20385;-60
2022/04/10 08:33:08;;;;;;;12.55;2.55;;;7.10;99.90;;;;;;4969544;28;20133;-59
2022/04/10 08:35:34;;;;;;;13.00;2.72;;;7.30;99.90;;;;;;4938182;28;20051;-59
2022/04/10 08:38:00;;;;;;;13.23;2.50;;;7.40;99.90;;;;;;4969763;28;20121;-59
2022/04/10 08:40:26;;;;;;;12.63;2.30;;;7.50;99.90;;;;;;4954771;28;20173;-59
2022/04/10 08:42:56;;;;;;;11.65;2.13;;;7.60;99.90;;;;;;4955057;28;20412;-59
2022/04/10 08:45:24;;;;;;;13.45;2.70;;;7.60;99.90;;;;;;4938112;28;20504;-61
2022/04/10 08:47:50;;;;;;;9.57;2.35;;;7.50;99.90;;;;;;4952791;28;20130;-61
2022/04/10 08:50:18;;;;;;;10.65;1.98;;;7.50;99.90;;;;;;4955747;28;20541;-61
2022/04/10 08:52:45;;;;;;;9.45;2.17;;;7.60;99.90;;;;;;4959440;28;20051;-62
2022/04/10 08:55:11;;;;;;;11.00;2.03;;;7.60;99.90;;;;;;4971656;28;20086;-61
2022/04/10 08:57:37;;;;;;;14.48;2.38;;;7.60;99.90;;;;;;4967985;28;20044;-61
2022/04/10 09:00:04;;;;;;;9.95;2.33;;;7.60;99.90;;;;;;4953828;28;20058;-60
2022/04/10 09:02:30;;;;;;;12.60;2.08;;;7.60;99.90;;;;;;4923845;28;20053;-60
2022/04/10 09:04:56;;;;;;;7.75;2.03;;;7.70;99.90;;;;;;4984732;28;20051;-61
2022/04/10 09:07:22;;;;;;;10.75;1.90;;;7.70;99.90;;;;;;4954886;28;20050;-61
2022/04/10 09:09:56;;;;;;;13.27;2.22;;;7.80;99.90;;;;;;4968255;28;20058;-61
2022/04/10 09:12:23;;;;;;;9.95;1.95;;;7.90;99.90;;;;;;4969517;28;20768;-60
2022/04/10 09:14:50;;;;;;;9.65;1.33;;;8.00;99.90;;;;;;4966557;28;20051;-61
2022/04/10 09:17:16;;;;;;;11.10;1.92;;;8.10;99.90;;;;;;4954620;28;20482;-61
2022/04/10 09:19:43;;;;;;;6.97;1.48;;;8.20;99.90;;;;;;4957019;28;20055;-61
2022/04/10 09:22:27;;;;;;;6.03;1.60;;;8.20;99.90;;;;;;4937917;28;20501;-60
2022/04/10 09:25:02;;;;;;;6.75;1.70;;;8.40;99.90;;;;;;4957406;28;20039;-61
2022/04/10 09:27:32;;;;;;;9.25;1.77;;;8.50;99.90;;;;;;4971523;28;20082;-61
2022/04/10 09:29:59;;;;;;;6.70;1.60;;;8.50;99.90;;;;;;4947169;28;20044;-60
2022/04/10 09:32:47;;;;;;;9.15;1.88;;;8.60;99.90;;;;;;4971482;28;20091;-60
2022/04/10 09:35:18;;;;;;;10.65;2.05;;;8.70;99.90;;;;;;4937139;28;20059;-61
2022/04/10 09:37:55;;;;;;;10.43;1.92;;;8.70;99.90;;;;;;4957379;28;20047;-60
2022/04/10 09:40:31;;;;;;;11.15;2.20;;;8.70;99.90;;;;;;4955805;28;20122;-61
2022/04/10 09:43:10;;;;;;;16.95;2.33;;;8.90;99.90;;;;;;4940167;28;20043;-62
2022/04/10 09:45:43;;;;;;;13.88;2.25;;;9.00;99.90;;;;;;4953276;28;20183;-59
2022/04/10 09:48:29;;;;;;;13.45;1.85;;;9.10;99.90;;;;;;4956287;28;20051;-60
2022/04/10 09:51:00;;;;;;;10.68;2.15;;;9.10;99.90;;;;;;4962244;28;20673;-61
2022/04/10 09:53:28;;;;;;;12.52;2.15;;;8.80;99.90;;;;;;4970082;28;20062;-60
2022/04/10 09:55:57;;;;;;;11.38;2.30;;;8.70;99.90;;;;;;4971742;28;20457;-60
2022/04/10 09:58:23;;;;;;;8.57;2.10;;;8.80;99.90;;;;;;4969376;28;20145;-59
2022/04/10 10:00:56;;;;;;;8.25;2.00;;;8.90;99.90;;;;;;4957177;28;20105;-61
2022/04/10 10:03:30;;;;;;;12.57;2.17;;;9.00;99.90;;;;;;4941747;28;20047;-61
2022/04/10 10:05:58;;;;;;;9.43;2.13;;;9.20;99.90;;;;;;4969450;28;20047;-61
2022/04/10 10:08:25;;;;;;;11.23;2.38;;;9.30;99.90;;;;;;4970215;28;20473;-60
2022/04/10 10:10:51;;;;;;;5.97;1.80;;;9.30;99.90;;;;;;4956944;28;20062;-61
2022/04/10 10:13:18;;;;;;;10.73;2.00;;;9.50;99.90;;;;;;4953953;28;20050;-61
2022/04/10 10:15:44;;;;;;;16.80;2.30;;;9.50;99.90;;;;;;4956760;28;20701;-60
2022/04/10 10:18:12;;;;;;;8.48;1.92;;;9.50;99.90;;;;;;4955017;28;20058;-61
2022/04/10 10:20:42;;;;;;;6.75;1.80;;;9.50;99.60;;;;;;4938617;28;20402;-60
2022/04/10 10:23:11;;;;;;;8.27;1.83;;;9.60;99.80;;;;;;4968623;28;20098;-61
2022/04/10 10:25:55;;;;;;;9.25;1.83;;;9.70;99.80;;;;;;4962721;28;20082;-61
2022/04/10 10:29:02;;;;;;;9.68;2.08;;;9.80;98.90;;;;;;4956013;28;20058;-60
2022/04/10 10:31:53;;;;;;;9.88;1.98;;;9.90;98.90;;;;;;4954113;28;20047;-61
2022/04/10 10:34:23;;;;;;;7.00;1.75;;;10.10;98.10;;;;;;4936280;28;20513;-61
2022/04/10 10:36:49;;;;;;;6.97;2.30;;;10.10;96.90;;;;;;4955209;28;20051;-60
2022/04/10 10:39:15;;;;;;;5.50;1.50;;;10.20;97.00;;;;;;4958103;28;20108;-61
2022/04/10 10:41:41;;;;;;;7.95;2.15;;;10.30;96.30;;;;;;4957051;28;20051;-60
2022/04/10 10:44:25;;;;;;;13.85;2.42;;;10.50;95.80;;;;;;4939870;28;20043;-61
2022/04/10 10:47:03;;;;;;;11.65;1.88;;;10.60;96.20;;;;;;4955101;28;20145;-61
2022/04/10 10:49:30;;;;;;;12.02;1.70;;;10.80;95.90;;;;;;4942268;28;20169;-61
2022/04/10 10:51:58;;;;;;;8.95;1.75;;;11.00;96.00;;;;;;4956819;28;20046;-60
2022/04/10 10:54:34;;;;;;;10.32;2.00;;;11.10;95.50;;;;;;4946115;28;20054;-58
2022/04/10 10:57:27;;;;;;;6.70;1.80;;;11.30;95.70;;;;;;4945345;28;20090;-60
2022/04/10 11:00:04;;;;;;;10.32;1.95;;;11.40;95.00;;;;;;4967692;28;20043;-60
2022/04/10 11:02:35;;;;;;;5.47;1.58;;;11.50;94.50;;;;;;4939457;28;20178;-61
2022/04/10 11:05:05;;;;;;;10.13;1.60;;;11.50;92.60;;;;;;4969537;28;20039;-61
2022/04/10 11:07:32;;;;;;;12.50;1.90;;;11.50;91.90;;;;;;4969591;28;20065;-61
2022/04/10 11:10:10;;;;;;;4.45;1.30;;;11.50;91.10;;;;;;4940065;28;20059;-61
2022/04/10 11:12:58;;;;;;;4.78;1.50;;;11.40;88.60;;;;;;4955215;28;20059;-61
2022/04/10 11:15:29;;;;;;;6.43;1.42;;;11.20;90.30;;;;;;4954296;28;20078;-61
2022/04/10 11:18:02;;;;;;;6.47;1.45;;;11.20;90.30;;;;;;4954717;28;20569;-60
2022/04/10 11:20:28;;;;;;;7.32;1.60;;;11.30;90.80;;;;;;4954405;28;20054;-61
2022/04/10 11:22:55;;;;;;;6.55;1.65;;;11.50;90.60;;;;;;4968319;28;20583;-61
2022/04/10 11:25:31;;;;;;;7.45;2.17;;;11.70;91.40;;;;;;4940782;28;20409;-62
2022/04/10 11:28:03;;;;;;;6.30;1.48;;;11.80;91.70;;;;;;4955513;28;20360;-60
2022/04/10 11:30:33;;;;;;;4.85;1.65;;;11.70;90.60;;;;;;4952278;28;20051;-61
2022/04/10 11:32:59;;;;;;;6.90;1.77;;;11.60;89.60;;;;;;4954797;28;20062;-61
2022/04/10 11:35:32;;;;;;;12.35;1.90;;;11.60;85.40;;;;;;4969240;28;20055;-61
2022/04/10 11:38:05;;;;;;;12.00;1.73;;;11.70;88.70;;;;;;4943783;28;20474;-61
2022/04/10 11:40:33;;;;;;;10.80;1.80;;;11.80;89.50;;;;;;4943740;28;20137;-61
2022/04/10 11:43:02;;;;;;;11.07;1.92;;;11.90;89.40;;;;;;4952882;28;20043;-61
2022/04/10 11:45:30;;;;;;;12.40;2.05;;;11.80;87.10;;;;;;4953431;28;20525;-61
2022/04/10 11:47:57;;;;;;;9.07;1.70;;;11.50;85.10;;;;;;4936797;28;20694;-61
2022/04/10 11:50:24;;;;;;;7.43;1.65;;;11.40;86.10;;;;;;4969912;28;20093;-61
2022/04/10 11:53:13;;;;;;;7.55;1.70;;;11.70;87.50;;;;;;4957050;28;20047;-61
2022/04/10 11:55:47;;;;;;;7.43;1.83;;;11.80;87.60;;;;;;4944808;28;20692;-61
2022/04/10 11:58:16;;;;;;;8.00;2.03;;;11.80;85.50;;;;;;4939128;28;20440;-60
2022/04/10 12:00:46;;;;;;;7.85;1.60;;;11.90;85.20;;;;;;4955047;28;20047;-61
2022/04/10 12:03:12;;;;;;;8.68;1.70;;;12.10;85.00;;;;;;4934102;28;20066;-61
2022/04/10 12:05:40;;;;;;;6.55;1.48;;;12.30;84.00;;;;;;4966693;28;20051;-61
2022/04/10 12:08:06;;;;;;;4.38;1.20;;;12.60;83.40;;;;;;4968317;28;20051;-62
2022/04/10 12:10:33;;;;;;;10.00;2.05;;;12.80;80.10;;;;;;4952572;28;20055;-62
2022/04/10 12:12:59;;;;;;;7.60;1.58;;;13.00;78.80;;;;;;4954786;28;20057;-62
2022/04/10 12:15:26;;;;;;;9.77;1.63;;;13.20;80.20;;;;;;4955201;28;20907;-61
2022/04/10 12:18:09;;;;;;;7.63;1.65;;;13.20;80.90;;;;;;4953666;28;20039;-62
2022/04/10 12:20:37;;;;;;;10.48;2.00;;;13.00;81.00;;;;;;4951287;28;20133;-61
2022/04/10 12:23:24;;;;;;;7.13;1.60;;;12.90;81.60;;;;;;4951740;28;20046;-62
2022/04/10 12:25:51;;;;;;;9.57;1.65;;;13.00;77.70;;;;;;4967904;28;20474;-61
2022/04/10 12:28:19;;;;;;;5.80;1.77;;;13.10;78.20;;;;;;4936658;28;20082;-61
2022/04/10 12:30:45;;;;;;;7.65;1.60;;;12.90;79.30;;;;;;4953089;28;20069;-61
2022/04/10 12:33:13;;;;;;;10.65;2.10;;;12.80;80.50;;;;;;4953969;28;20051;-61
2022/04/10 12:35:41;;;;;;;12.07;2.30;;;12.60;78.50;;;;;;4968990;28;20055;-61
2022/04/10 12:38:08;;;;;;;9.02;1.60;;;12.30;80.20;;;;;;4966489;28;20062;-62
2022/04/10 12:40:37;;;;;;;9.32;1.80;;;12.40;82.40;;;;;;4954288;28;20062;-61
2022/04/10 12:43:07;;;;;;;15.10;2.03;;;12.60;80.80;;;;;;4938270;28;20054;-61
2022/04/10 12:45:34;;;;;;;5.50;1.40;;;12.50;80.30;;;;;;4937423;28;20125;-62
2022/04/10 12:48:01;;;;;;;5.45;1.27;;;12.60;80.80;;;;;;4944234;28;20185;-61
2022/04/10 12:50:28;;;;;;;8.85;1.75;;;12.80;79.00;;;;;;4927930;28;20157;-58
2022/04/10 12:52:55;;;;;;;6.68;1.50;;;12.80;77.40;;;;;;4954804;28;20066;-60
2022/04/10 12:55:26;;;;;;;8.05;1.60;;;12.90;77.20;;;;;;4941467;28;20501;-59
2022/04/10 12:58:00;;;;;;;6.32;1.20;;;13.10;77.90;;;;;;4956555;28;20047;-58